sensor_id;sensor_type;location;lat;lon;timestamp;P1;durP1;ratioP1;P2;durP2;ratioP2
75073;SDS011;63652;51.526;5.080;2022-10-31T00:00:06;23.05;;;9.27;;
75073;SDS011;63652;51.526;5.080;2022-10-31T00:02:36;21.05;;;11.18;;
75073;SDS011;63652;51.526;5.080;2022-10-31T00:05:02;17.85;;;9.23;;
75073;SDS011;63652;51.526;5.080;2022-10-31T00:07:27;23.25;;;9.82;;
75073;SDS011;63652;51.526;5.080;2022-10-31T00:09:53;21.50;;;9.05;;
75073;SDS011;63652;51.526;5.080;2022-10-31T00:12:18;17.90;;;9.20;;
75073;SDS011;63652;51.526;5.080;2022-10-31T00:14:43;15.65;;;8.38;;
75073;SDS011;63652;51.526;5.080;2022-10-31T00:17:09;16.42;;;8.52;;
75073;SDS011;63652;51.526;5.080;2022-10-31T00:19:34;16.88;;;8.88;;
75073;SDS011;63652;51.526;5.080;2022-10-31T00:21:59;17.77;;;8.88;;
75073;SDS011;63652;51.526;5.080;2022-10-31T00:24:25;18.13;;;8.88;;
75073;SDS011;63652;51.526;5.080;2022-10-31T00:26:50;19.13;;;8.57;;
75073;SDS011;63652;51.526;5.080;2022-10-31T00:29:15;23.00;;;9.82;;
75073;SDS011;63652;51.526;5.080;2022-10-31T00:31:41;18.05;;;9.80;;
75073;SDS011;63652;51.526;5.080;2022-10-31T00:34:06;19.55;;;9.13;;
75073;SDS011;63652;51.526;5.080;2022-10-31T00:36:31;16.90;;;8.35;;
75073;SDS011;63652;51.526;5.080;2022-10-31T00:38:57;24.48;;;10.02;;
75073;SDS011;63652;51.526;5.080;2022-10-31T00:41:23;16.48;;;8.98;;
75073;SDS011;63652;51.526;5.080;2022-10-31T00:43:48;17.17;;;8.95;;
75073;SDS011;63652;51.526;5.080;2022-10-31T00:46:13;18.67;;;9.68;;
75073;SDS011;63652;51.526;5.080;2022-10-31T00:48:39;17.23;;;9.60;;
75073;SDS011;63652;51.526;5.080;2022-10-31T00:51:04;18.42;;;8.80;;
75073;SDS011;63652;51.526;5.080;2022-10-31T00:53:30;17.38;;;8.88;;
75073;SDS011;63652;51.526;5.080;2022-10-31T00:55:55;15.90;;;8.63;;
75073;SDS011;63652;51.526;5.080;2022-10-31T00:58:20;13.75;;;7.90;;
75073;SDS011;63652;51.526;5.080;2022-10-31T01:00:47;15.65;;;7.30;;
75073;SDS011;63652;51.526;5.080;2022-10-31T01:03:19;13.23;;;7.22;;
75073;SDS011;63652;51.526;5.080;2022-10-31T01:05:45;17.02;;;8.60;;
75073;SDS011;63652;51.526;5.080;2022-10-31T01:08:20;18.27;;;9.40;;
75073;SDS011;63652;51.526;5.080;2022-10-31T01:10:46;15.00;;;7.57;;
75073;SDS011;63652;51.526;5.080;2022-10-31T01:13:11;21.00;;;8.30;;
75073;SDS011;63652;51.526;5.080;2022-10-31T01:15:36;19.23;;;8.82;;
75073;SDS011;63652;51.526;5.080;2022-10-31T01:18:02;15.88;;;8.13;;
75073;SDS011;63652;51.526;5.080;2022-10-31T01:20:27;17.90;;;8.70;;
75073;SDS011;63652;51.526;5.080;2022-10-31T01:22:52;15.60;;;8.60;;
75073;SDS011;63652;51.526;5.080;2022-10-31T01:25:18;17.25;;;7.80;;
75073;SDS011;63652;51.526;5.080;2022-10-31T01:27:43;15.70;;;8.50;;
75073;SDS011;63652;51.526;5.080;2022-10-31T01:30:09;19.08;;;9.13;;
75073;SDS011;63652;51.526;5.080;2022-10-31T01:32:34;14.98;;;8.43;;
75073;SDS011;63652;51.526;5.080;2022-10-31T01:35:00;16.77;;;8.07;;
75073;SDS011;63652;51.526;5.080;2022-10-31T01:37:25;16.38;;;8.90;;
75073;SDS011;63652;51.526;5.080;2022-10-31T01:39:50;14.60;;;8.52;;
75073;SDS011;63652;51.526;5.080;2022-10-31T01:42:17;16.02;;;8.65;;
75073;SDS011;63652;51.526;5.080;2022-10-31T01:44:49;15.50;;;7.53;;
75073;SDS011;63652;51.526;5.080;2022-10-31T01:47:16;15.25;;;8.38;;
75073;SDS011;63652;51.526;5.080;2022-10-31T01:49:44;14.70;;;8.43;;
75073;SDS011;63652;51.526;5.080;2022-10-31T01:54:59;13.70;;;5.75;;
75073;SDS011;63652;51.526;5.080;2022-10-31T01:57:28;14.10;;;5.63;;
75073;SDS011;63652;51.526;5.080;2022-10-31T01:59:58;14.70;;;6.97;;
75073;SDS011;63652;51.526;5.080;2022-10-31T02:02:26;13.45;;;6.32;;
75073;SDS011;63652;51.526;5.080;2022-10-31T02:04:52;11.38;;;5.72;;
75073;SDS011;63652;51.526;5.080;2022-10-31T02:07:20;11.23;;;6.15;;
75073;SDS011;63652;51.526;5.080;2022-10-31T02:09:49;14.73;;;7.18;;
75073;SDS011;63652;51.526;5.080;2022-10-31T02:12:16;14.05;;;6.43;;
75073;SDS011;63652;51.526;5.080;2022-10-31T02:14:42;11.63;;;6.15;;
75073;SDS011;63652;51.526;5.080;2022-10-31T02:17:08;13.10;;;6.18;;
75073;SDS011;63652;51.526;5.080;2022-10-31T02:22:26;10.73;;;6.05;;
75073;SDS011;63652;51.526;5.080;2022-10-31T02:30:23;11.30;;;6.30;;
75073;SDS011;63652;51.526;5.080;2022-10-31T02:44:29;12.35;;;6.68;;
75073;SDS011;63652;51.526;5.080;2022-10-31T02:46:59;11.43;;;6.38;;
75073;SDS011;63652;51.526;5.080;2022-10-31T02:49:32;12.50;;;5.85;;
75073;SDS011;63652;51.526;5.080;2022-10-31T02:52:21;12.77;;;6.00;;
75073;SDS011;63652;51.526;5.080;2022-10-31T02:54:51;12.20;;;6.13;;
75073;SDS011;63652;51.526;5.080;2022-10-31T02:57:18;13.70;;;7.22;;
75073;SDS011;63652;51.526;5.080;2022-10-31T02:59:49;13.05;;;6.68;;
75073;SDS011;63652;51.526;5.080;2022-10-31T03:13:07;12.02;;;6.10;;
75073;SDS011;63652;51.526;5.080;2022-10-31T03:15:46;12.77;;;6.22;;
75073;SDS011;63652;51.526;5.080;2022-10-31T03:18:28;10.88;;;5.50;;
75073;SDS011;63652;51.526;5.080;2022-10-31T03:23:29;10.98;;;5.53;;
75073;SDS011;63652;51.526;5.080;2022-10-31T03:25:55;10.95;;;5.25;;
75073;SDS011;63652;51.526;5.080;2022-10-31T03:28:23;10.90;;;5.07;;
75073;SDS011;63652;51.526;5.080;2022-10-31T03:30:52;9.07;;;5.13;;
75073;SDS011;63652;51.526;5.080;2022-10-31T03:33:20;10.05;;;5.55;;
75073;SDS011;63652;51.526;5.080;2022-10-31T03:35:49;9.50;;;5.18;;
75073;SDS011;63652;51.526;5.080;2022-10-31T03:38:16;12.55;;;5.70;;
75073;SDS011;63652;51.526;5.080;2022-10-31T03:40:43;10.55;;;5.53;;
75073;SDS011;63652;51.526;5.080;2022-10-31T03:43:12;9.63;;;5.60;;
75073;SDS011;63652;51.526;5.080;2022-10-31T03:45:43;12.75;;;6.00;;
75073;SDS011;63652;51.526;5.080;2022-10-31T03:48:10;10.85;;;6.00;;
75073;SDS011;63652;51.526;5.080;2022-10-31T03:50:47;10.85;;;6.30;;
75073;SDS011;63652;51.526;5.080;2022-10-31T03:55:57;14.60;;;6.28;;
75073;SDS011;63652;51.526;5.080;2022-10-31T03:58:30;11.20;;;5.88;;
75073;SDS011;63652;51.526;5.080;2022-10-31T04:03:30;10.77;;;5.65;;
75073;SDS011;63652;51.526;5.080;2022-10-31T04:05:58;13.90;;;7.45;;
75073;SDS011;63652;51.526;5.080;2022-10-31T04:08:27;12.32;;;7.30;;
75073;SDS011;63652;51.526;5.080;2022-10-31T04:10:55;14.10;;;7.47;;
75073;SDS011;63652;51.526;5.080;2022-10-31T04:13:27;12.85;;;6.55;;
75073;SDS011;63652;51.526;5.080;2022-10-31T04:15:54;10.82;;;6.10;;
75073;SDS011;63652;51.526;5.080;2022-10-31T04:18:22;8.65;;;5.13;;
75073;SDS011;63652;51.526;5.080;2022-10-31T04:20:59;8.82;;;4.90;;
75073;SDS011;63652;51.526;5.080;2022-10-31T04:23:31;9.30;;;4.20;;
75073;SDS011;63652;51.526;5.080;2022-10-31T04:25:57;11.27;;;5.22;;
75073;SDS011;63652;51.526;5.080;2022-10-31T04:28:23;13.73;;;5.78;;
75073;SDS011;63652;51.526;5.080;2022-10-31T04:30:48;12.40;;;5.65;;
75073;SDS011;63652;51.526;5.080;2022-10-31T04:33:14;15.25;;;6.30;;
75073;SDS011;63652;51.526;5.080;2022-10-31T04:35:39;11.95;;;5.32;;
75073;SDS011;63652;51.526;5.080;2022-10-31T04:38:05;6.70;;;4.15;;
75073;SDS011;63652;51.526;5.080;2022-10-31T04:40:30;7.18;;;4.50;;
75073;SDS011;63652;51.526;5.080;2022-10-31T04:42:56;8.75;;;4.18;;
75073;SDS011;63652;51.526;5.080;2022-10-31T04:45:21;10.13;;;4.30;;
75073;SDS011;63652;51.526;5.080;2022-10-31T04:47:46;7.90;;;5.07;;
75073;SDS011;63652;51.526;5.080;2022-10-31T04:50:12;8.98;;;5.13;;
75073;SDS011;63652;51.526;5.080;2022-10-31T04:52:41;11.15;;;5.32;;
75073;SDS011;63652;51.526;5.080;2022-10-31T04:55:10;10.02;;;5.00;;
75073;SDS011;63652;51.526;5.080;2022-10-31T04:57:43;11.07;;;5.63;;
75073;SDS011;63652;51.526;5.080;2022-10-31T05:00:12;10.73;;;4.35;;
75073;SDS011;63652;51.526;5.080;2022-10-31T05:02:43;8.48;;;4.90;;
75073;SDS011;63652;51.526;5.080;2022-10-31T05:05:12;8.90;;;5.00;;
75073;SDS011;63652;51.526;5.080;2022-10-31T05:07:40;10.32;;;5.40;;
75073;SDS011;63652;51.526;5.080;2022-10-31T05:10:06;14.52;;;6.00;;
75073;SDS011;63652;51.526;5.080;2022-10-31T05:12:37;15.55;;;6.13;;
75073;SDS011;63652;51.526;5.080;2022-10-31T05:15:03;13.13;;;6.07;;
75073;SDS011;63652;51.526;5.080;2022-10-31T05:17:30;11.13;;;6.20;;
75073;SDS011;63652;51.526;5.080;2022-10-31T05:19:56;10.15;;;5.95;;
75073;SDS011;63652;51.526;5.080;2022-10-31T05:22:21;12.38;;;6.00;;
75073;SDS011;63652;51.526;5.080;2022-10-31T05:24:46;10.85;;;5.95;;
75073;SDS011;63652;51.526;5.080;2022-10-31T05:27:12;11.75;;;6.38;;
75073;SDS011;63652;51.526;5.080;2022-10-31T05:29:37;13.13;;;6.10;;
75073;SDS011;63652;51.526;5.080;2022-10-31T05:32:03;10.27;;;5.55;;
75073;SDS011;63652;51.526;5.080;2022-10-31T05:34:28;11.18;;;6.20;;
75073;SDS011;63652;51.526;5.080;2022-10-31T05:36:53;10.15;;;6.00;;
75073;SDS011;63652;51.526;5.080;2022-10-31T05:39:19;10.88;;;6.10;;
75073;SDS011;63652;51.526;5.080;2022-10-31T05:41:44;13.35;;;6.65;;
75073;SDS011;63652;51.526;5.080;2022-10-31T05:44:09;14.80;;;7.10;;
75073;SDS011;63652;51.526;5.080;2022-10-31T05:46:35;11.35;;;6.88;;
75073;SDS011;63652;51.526;5.080;2022-10-31T05:49:00;13.93;;;8.30;;
75073;SDS011;63652;51.526;5.080;2022-10-31T05:51:25;14.45;;;7.95;;
75073;SDS011;63652;51.526;5.080;2022-10-31T05:53:51;16.80;;;8.70;;
75073;SDS011;63652;51.526;5.080;2022-10-31T05:56:16;16.25;;;8.95;;
75073;SDS011;63652;51.526;5.080;2022-10-31T05:58:41;14.38;;;8.27;;
75073;SDS011;63652;51.526;5.080;2022-10-31T06:01:07;18.70;;;8.90;;
75073;SDS011;63652;51.526;5.080;2022-10-31T06:03:32;17.23;;;8.48;;
75073;SDS011;63652;51.526;5.080;2022-10-31T06:05:57;18.85;;;10.90;;
75073;SDS011;63652;51.526;5.080;2022-10-31T06:08:23;20.45;;;10.13;;
75073;SDS011;63652;51.526;5.080;2022-10-31T06:10:48;19.92;;;10.18;;
75073;SDS011;63652;51.526;5.080;2022-10-31T06:13:14;20.70;;;10.50;;
75073;SDS011;63652;51.526;5.080;2022-10-31T06:15:40;18.05;;;9.60;;
75073;SDS011;63652;51.526;5.080;2022-10-31T06:18:06;17.95;;;10.70;;
75073;SDS011;63652;51.526;5.080;2022-10-31T06:20:33;30.05;;;11.43;;
75073;SDS011;63652;51.526;5.080;2022-10-31T06:22:58;27.27;;;12.05;;
75073;SDS011;63652;51.526;5.080;2022-10-31T06:25:24;35.70;;;12.10;;
75073;SDS011;63652;51.526;5.080;2022-10-31T06:27:49;22.70;;;11.32;;
75073;SDS011;63652;51.526;5.080;2022-10-31T06:30:14;25.10;;;10.88;;
75073;SDS011;63652;51.526;5.080;2022-10-31T06:32:40;23.40;;;10.38;;
75073;SDS011;63652;51.526;5.080;2022-10-31T06:35:05;19.52;;;10.63;;
75073;SDS011;63652;51.526;5.080;2022-10-31T06:37:31;19.48;;;10.18;;
75073;SDS011;63652;51.526;5.080;2022-10-31T06:39:57;18.90;;;10.95;;
75073;SDS011;63652;51.526;5.080;2022-10-31T06:42:22;18.10;;;10.02;;
75073;SDS011;63652;51.526;5.080;2022-10-31T06:44:47;20.55;;;10.75;;
75073;SDS011;63652;51.526;5.080;2022-10-31T06:47:13;18.90;;;10.20;;
75073;SDS011;63652;51.526;5.080;2022-10-31T06:49:38;24.80;;;10.63;;
75073;SDS011;63652;51.526;5.080;2022-10-31T06:52:04;27.23;;;12.52;;
75073;SDS011;63652;51.526;5.080;2022-10-31T06:54:30;22.20;;;11.98;;
75073;SDS011;63652;51.526;5.080;2022-10-31T06:56:55;20.90;;;10.55;;
75073;SDS011;63652;51.526;5.080;2022-10-31T06:59:20;19.65;;;11.05;;
75073;SDS011;63652;51.526;5.080;2022-10-31T07:01:46;20.08;;;11.23;;
75073;SDS011;63652;51.526;5.080;2022-10-31T07:04:11;21.58;;;11.40;;
75073;SDS011;63652;51.526;5.080;2022-10-31T07:06:37;21.58;;;11.00;;
75073;SDS011;63652;51.526;5.080;2022-10-31T07:09:02;16.83;;;9.85;;
75073;SDS011;63652;51.526;5.080;2022-10-31T07:11:28;17.30;;;9.98;;
75073;SDS011;63652;51.526;5.080;2022-10-31T07:13:53;17.65;;;9.88;;
75073;SDS011;63652;51.526;5.080;2022-10-31T07:16:19;19.10;;;10.18;;
75073;SDS011;63652;51.526;5.080;2022-10-31T07:18:44;22.33;;;11.50;;
75073;SDS011;63652;51.526;5.080;2022-10-31T07:21:09;20.25;;;10.15;;
75073;SDS011;63652;51.526;5.080;2022-10-31T07:23:35;16.38;;;9.70;;
75073;SDS011;63652;51.526;5.080;2022-10-31T07:26:00;16.38;;;8.77;;
75073;SDS011;63652;51.526;5.080;2022-10-31T07:28:26;17.92;;;9.57;;
75073;SDS011;63652;51.526;5.080;2022-10-31T07:30:52;17.67;;;9.98;;
75073;SDS011;63652;51.526;5.080;2022-10-31T07:33:18;20.95;;;10.38;;
75073;SDS011;63652;51.526;5.080;2022-10-31T07:35:44;18.38;;;9.50;;
75073;SDS011;63652;51.526;5.080;2022-10-31T07:38:10;18.65;;;9.75;;
75073;SDS011;63652;51.526;5.080;2022-10-31T07:40:36;16.83;;;9.90;;
75073;SDS011;63652;51.526;5.080;2022-10-31T07:43:02;21.52;;;11.30;;
75073;SDS011;63652;51.526;5.080;2022-10-31T07:45:27;20.90;;;9.68;;
75073;SDS011;63652;51.526;5.080;2022-10-31T07:47:52;21.98;;;10.85;;
75073;SDS011;63652;51.526;5.080;2022-10-31T07:50:19;22.90;;;12.77;;
75073;SDS011;63652;51.526;5.080;2022-10-31T07:52:46;24.95;;;12.32;;
75073;SDS011;63652;51.526;5.080;2022-10-31T07:55:12;23.33;;;12.32;;
75073;SDS011;63652;51.526;5.080;2022-10-31T07:57:38;17.80;;;10.73;;
75073;SDS011;63652;51.526;5.080;2022-10-31T08:00:04;22.77;;;11.55;;
75073;SDS011;63652;51.526;5.080;2022-10-31T08:02:30;27.10;;;13.68;;
75073;SDS011;63652;51.526;5.080;2022-10-31T08:04:56;23.98;;;14.07;;
75073;SDS011;63652;51.526;5.080;2022-10-31T08:07:21;21.52;;;12.43;;
75073;SDS011;63652;51.526;5.080;2022-10-31T08:09:46;21.95;;;12.68;;
75073;SDS011;63652;51.526;5.080;2022-10-31T08:12:12;20.95;;;12.63;;
75073;SDS011;63652;51.526;5.080;2022-10-31T08:14:37;25.25;;;14.70;;
75073;SDS011;63652;51.526;5.080;2022-10-31T08:17:03;26.95;;;14.02;;
75073;SDS011;63652;51.526;5.080;2022-10-31T08:19:28;33.30;;;17.55;;
75073;SDS011;63652;51.526;5.080;2022-10-31T08:21:53;32.90;;;17.08;;
75073;SDS011;63652;51.526;5.080;2022-10-31T08:24:20;33.05;;;16.27;;
75073;SDS011;63652;51.526;5.080;2022-10-31T08:26:46;27.90;;;15.10;;
75073;SDS011;63652;51.526;5.080;2022-10-31T08:29:11;27.42;;;15.65;;
75073;SDS011;63652;51.526;5.080;2022-10-31T08:31:37;31.80;;;14.50;;
75073;SDS011;63652;51.526;5.080;2022-10-31T08:34:03;29.63;;;15.32;;
75073;SDS011;63652;51.526;5.080;2022-10-31T08:36:29;24.05;;;14.57;;
75073;SDS011;63652;51.526;5.080;2022-10-31T08:38:54;26.42;;;12.93;;
75073;SDS011;63652;51.526;5.080;2022-10-31T08:41:20;25.10;;;14.65;;
75073;SDS011;63652;51.526;5.080;2022-10-31T08:43:45;28.02;;;12.77;;
75073;SDS011;63652;51.526;5.080;2022-10-31T08:46:11;25.65;;;14.60;;
75073;SDS011;63652;51.526;5.080;2022-10-31T08:48:36;32.40;;;15.93;;
75073;SDS011;63652;51.526;5.080;2022-10-31T08:51:02;26.83;;;15.35;;
75073;SDS011;63652;51.526;5.080;2022-10-31T08:53:27;30.75;;;15.20;;
75073;SDS011;63652;51.526;5.080;2022-10-31T08:55:56;26.73;;;14.68;;
75073;SDS011;63652;51.526;5.080;2022-10-31T08:58:22;29.38;;;14.70;;
75073;SDS011;63652;51.526;5.080;2022-10-31T09:00:51;26.48;;;13.43;;
75073;SDS011;63652;51.526;5.080;2022-10-31T09:03:20;21.90;;;13.32;;
75073;SDS011;63652;51.526;5.080;2022-10-31T09:05:47;31.75;;;15.07;;
75073;SDS011;63652;51.526;5.080;2022-10-31T09:08:13;28.08;;;14.27;;
75073;SDS011;63652;51.526;5.080;2022-10-31T09:10:39;27.30;;;14.88;;
75073;SDS011;63652;51.526;5.080;2022-10-31T09:13:05;32.30;;;17.08;;
75073;SDS011;63652;51.526;5.080;2022-10-31T09:15:35;30.63;;;16.63;;
75073;SDS011;63652;51.526;5.080;2022-10-31T09:18:04;38.38;;;18.65;;
75073;SDS011;63652;51.526;5.080;2022-10-31T09:20:31;25.45;;;15.27;;
75073;SDS011;63652;51.526;5.080;2022-10-31T09:22:58;30.48;;;15.35;;
75073;SDS011;63652;51.526;5.080;2022-10-31T09:25:24;33.80;;;16.60;;
75073;SDS011;63652;51.526;5.080;2022-10-31T09:27:50;35.55;;;17.60;;
75073;SDS011;63652;51.526;5.080;2022-10-31T09:30:16;33.08;;;17.02;;
75073;SDS011;63652;51.526;5.080;2022-10-31T09:32:41;32.92;;;18.77;;
75073;SDS011;63652;51.526;5.080;2022-10-31T09:35:06;32.72;;;17.75;;
75073;SDS011;63652;51.526;5.080;2022-10-31T09:37:35;33.40;;;18.63;;
75073;SDS011;63652;51.526;5.080;2022-10-31T09:40:00;33.72;;;18.42;;
75073;SDS011;63652;51.526;5.080;2022-10-31T09:42:33;35.40;;;20.83;;
75073;SDS011;63652;51.526;5.080;2022-10-31T09:45:21;37.65;;;18.60;;
75073;SDS011;63652;51.526;5.080;2022-10-31T09:50:21;37.28;;;18.55;;
75073;SDS011;63652;51.526;5.080;2022-10-31T09:52:57;36.55;;;18.05;;
75073;SDS011;63652;51.526;5.080;2022-10-31T09:55:35;36.08;;;19.60;;
75073;SDS011;63652;51.526;5.080;2022-10-31T09:58:05;40.40;;;18.95;;
75073;SDS011;63652;51.526;5.080;2022-10-31T10:00:30;37.80;;;19.42;;
75073;SDS011;63652;51.526;5.080;2022-10-31T10:05:56;40.10;;;19.70;;
75073;SDS011;63652;51.526;5.080;2022-10-31T10:08:27;40.97;;;21.25;;
75073;SDS011;63652;51.526;5.080;2022-10-31T10:16:31;42.17;;;20.35;;
75073;SDS011;63652;51.526;5.080;2022-10-31T10:19:20;49.15;;;22.05;;
75073;SDS011;63652;51.526;5.080;2022-10-31T10:30:16;46.05;;;20.80;;
75073;SDS011;63652;51.526;5.080;2022-10-31T10:32:45;45.22;;;21.92;;
75073;SDS011;63652;51.526;5.080;2022-10-31T10:38:17;44.13;;;22.45;;
75073;SDS011;63652;51.526;5.080;2022-10-31T10:40:44;42.20;;;21.17;;
75073;SDS011;63652;51.526;5.080;2022-10-31T10:52:39;47.15;;;21.73;;
75073;SDS011;63652;51.526;5.080;2022-10-31T10:55:48;48.72;;;21.45;;
75073;SDS011;63652;51.526;5.080;2022-10-31T10:58:08;49.00;;;24.23;;
75073;SDS011;63652;51.526;5.080;2022-10-31T11:00:36;55.97;;;24.00;;
75073;SDS011;63652;51.526;5.080;2022-10-31T11:03:03;47.35;;;21.77;;
75073;SDS011;63652;51.526;5.080;2022-10-31T11:05:50;46.08;;;22.30;;
75073;SDS011;63652;51.526;5.080;2022-10-31T11:08:50;49.47;;;22.40;;
75073;SDS011;63652;51.526;5.080;2022-10-31T11:13:52;53.22;;;24.45;;
75073;SDS011;63652;51.526;5.080;2022-10-31T11:19:04;63.75;;;27.23;;
75073;SDS011;63652;51.526;5.080;2022-10-31T11:21:40;56.47;;;25.35;;
75073;SDS011;63652;51.526;5.080;2022-10-31T11:24:14;58.40;;;25.95;;
75073;SDS011;63652;51.526;5.080;2022-10-31T11:26:51;58.97;;;26.42;;
75073;SDS011;63652;51.526;5.080;2022-10-31T11:29:27;63.22;;;25.33;;
75073;SDS011;63652;51.526;5.080;2022-10-31T11:31:56;60.67;;;24.15;;
75073;SDS011;63652;51.526;5.080;2022-10-31T11:34:29;54.35;;;24.33;;
75073;SDS011;63652;51.526;5.080;2022-10-31T11:37:08;63.72;;;28.23;;
75073;SDS011;63652;51.526;5.080;2022-10-31T11:39:41;59.22;;;25.25;;
75073;SDS011;63652;51.526;5.080;2022-10-31T11:42:18;58.00;;;24.65;;
75073;SDS011;63652;51.526;5.080;2022-10-31T11:44:47;51.58;;;24.13;;
75073;SDS011;63652;51.526;5.080;2022-10-31T11:47:16;59.33;;;26.05;;
75073;SDS011;63652;51.526;5.080;2022-10-31T11:49:43;56.90;;;25.52;;
75073;SDS011;63652;51.526;5.080;2022-10-31T11:52:18;58.10;;;24.58;;
75073;SDS011;63652;51.526;5.080;2022-10-31T11:54:55;56.42;;;26.80;;
75073;SDS011;63652;51.526;5.080;2022-10-31T11:59:58;59.33;;;24.45;;
75073;SDS011;63652;51.526;5.080;2022-10-31T12:02:28;59.00;;;26.02;;
75073;SDS011;63652;51.526;5.080;2022-10-31T12:07:27;58.00;;;24.63;;
75073;SDS011;63652;51.526;5.080;2022-10-31T12:09:58;57.22;;;24.98;;
75073;SDS011;63652;51.526;5.080;2022-10-31T12:20:54;54.38;;;24.77;;
75073;SDS011;63652;51.526;5.080;2022-10-31T12:23:50;56.95;;;25.50;;
75073;SDS011;63652;51.526;5.080;2022-10-31T12:37:27;43.45;;;21.25;;
75073;SDS011;63652;51.526;5.080;2022-10-31T12:59:36;41.72;;;20.17;;
75073;SDS011;63652;51.526;5.080;2022-10-31T13:05:02;38.50;;;19.08;;
75073;SDS011;63652;51.526;5.080;2022-10-31T13:08:25;42.78;;;19.38;;
75073;SDS011;63652;51.526;5.080;2022-10-31T13:11:08;39.20;;;20.02;;
75073;SDS011;63652;51.526;5.080;2022-10-31T13:13:53;42.10;;;17.17;;
75073;SDS011;63652;51.526;5.080;2022-10-31T13:16:24;38.92;;;19.98;;
75073;SDS011;63652;51.526;5.080;2022-10-31T13:21:34;39.55;;;19.52;;
75073;SDS011;63652;51.526;5.080;2022-10-31T13:24:07;38.15;;;19.25;;
75073;SDS011;63652;51.526;5.080;2022-10-31T13:26:50;38.45;;;20.20;;
75073;SDS011;63652;51.526;5.080;2022-10-31T13:29:29;34.53;;;18.73;;
75073;SDS011;63652;51.526;5.080;2022-10-31T13:31:58;39.38;;;19.80;;
75073;SDS011;63652;51.526;5.080;2022-10-31T13:42:45;38.55;;;18.42;;
75073;SDS011;63652;51.526;5.080;2022-10-31T13:45:16;35.22;;;17.30;;
75073;SDS011;63652;51.526;5.080;2022-10-31T13:47:53;35.72;;;17.13;;
75073;SDS011;63652;51.526;5.080;2022-10-31T13:50:27;36.15;;;18.10;;
75073;SDS011;63652;51.526;5.080;2022-10-31T13:55:49;35.20;;;17.40;;
75073;SDS011;63652;51.526;5.080;2022-10-31T13:58:26;37.55;;;18.13;;
75073;SDS011;63652;51.526;5.080;2022-10-31T14:03:35;36.05;;;18.83;;
75073;SDS011;63652;51.526;5.080;2022-10-31T14:06:06;35.83;;;17.92;;
75073;SDS011;63652;51.526;5.080;2022-10-31T14:08:34;36.25;;;14.60;;
75073;SDS011;63652;51.526;5.080;2022-10-31T14:11:01;36.30;;;16.85;;
75073;SDS011;63652;51.526;5.080;2022-10-31T14:13:29;31.95;;;14.45;;
75073;SDS011;63652;51.526;5.080;2022-10-31T14:15:58;26.83;;;13.65;;
75073;SDS011;63652;51.526;5.080;2022-10-31T14:18:28;32.25;;;14.90;;
75073;SDS011;63652;51.526;5.080;2022-10-31T14:21:15;29.15;;;12.18;;
75073;SDS011;63652;51.526;5.080;2022-10-31T14:23:51;26.77;;;12.55;;
75073;SDS011;63652;51.526;5.080;2022-10-31T14:28:53;27.38;;;12.52;;
75073;SDS011;63652;51.526;5.080;2022-10-31T14:34:23;26.95;;;13.88;;
75073;SDS011;63652;51.526;5.080;2022-10-31T14:47:16;25.55;;;12.43;;
75073;SDS011;63652;51.526;5.080;2022-10-31T14:52:27;22.00;;;10.32;;
75073;SDS011;63652;51.526;5.080;2022-10-31T14:54:56;25.40;;;10.38;;
75073;SDS011;63652;51.526;5.080;2022-10-31T14:57:34;24.00;;;10.48;;
75073;SDS011;63652;51.526;5.080;2022-10-31T15:00:03;27.17;;;11.32;;
75073;SDS011;63652;51.526;5.080;2022-10-31T15:05:30;27.27;;;12.85;;
75073;SDS011;63652;51.526;5.080;2022-10-31T15:07:57;26.52;;;11.60;;
75073;SDS011;63652;51.526;5.080;2022-10-31T15:10:33;23.70;;;10.75;;
75073;SDS011;63652;51.526;5.080;2022-10-31T15:13:08;20.88;;;10.15;;
75073;SDS011;63652;51.526;5.080;2022-10-31T15:15:35;26.25;;;10.77;;
75073;SDS011;63652;51.526;5.080;2022-10-31T15:18:03;22.20;;;9.40;;
75073;SDS011;63652;51.526;5.080;2022-10-31T15:20:30;25.92;;;10.15;;
75073;SDS011;63652;51.526;5.080;2022-10-31T15:22:58;23.45;;;9.85;;
75073;SDS011;63652;51.526;5.080;2022-10-31T15:25:27;22.17;;;9.95;;
75073;SDS011;63652;51.526;5.080;2022-10-31T15:27:55;22.48;;;9.80;;
75073;SDS011;63652;51.526;5.080;2022-10-31T15:30:28;21.50;;;10.93;;
75073;SDS011;63652;51.526;5.080;2022-10-31T15:32:53;23.42;;;10.40;;
75073;SDS011;63652;51.526;5.080;2022-10-31T15:35:20;23.40;;;11.82;;
75073;SDS011;63652;51.526;5.080;2022-10-31T15:37:47;22.05;;;11.10;;
75073;SDS011;63652;51.526;5.080;2022-10-31T15:40:16;22.40;;;11.27;;
75073;SDS011;63652;51.526;5.080;2022-10-31T15:42:44;22.70;;;10.80;;
75073;SDS011;63652;51.526;5.080;2022-10-31T15:45:21;22.20;;;10.20;;
75073;SDS011;63652;51.526;5.080;2022-10-31T15:48:34;23.35;;;11.18;;
75073;SDS011;63652;51.526;5.080;2022-10-31T15:50:46;23.70;;;10.82;;
75073;SDS011;63652;51.526;5.080;2022-10-31T15:53:21;22.05;;;10.80;;
75073;SDS011;63652;51.526;5.080;2022-10-31T15:58:21;25.90;;;10.23;;
75073;SDS011;63652;51.526;5.080;2022-10-31T16:01:19;21.70;;;11.43;;
75073;SDS011;63652;51.526;5.080;2022-10-31T16:03:57;23.30;;;10.88;;
75073;SDS011;63652;51.526;5.080;2022-10-31T16:06:26;22.60;;;10.60;;
75073;SDS011;63652;51.526;5.080;2022-10-31T16:08:51;19.55;;;9.80;;
75073;SDS011;63652;51.526;5.080;2022-10-31T16:11:20;18.58;;;11.35;;
75073;SDS011;63652;51.526;5.080;2022-10-31T16:16:24;21.90;;;9.93;;
75073;SDS011;63652;51.526;5.080;2022-10-31T16:18:50;22.33;;;10.38;;
75073;SDS011;63652;51.526;5.080;2022-10-31T16:21:22;17.92;;;9.35;;
75073;SDS011;63652;51.526;5.080;2022-10-31T16:23:54;24.17;;;11.27;;
75073;SDS011;63652;51.526;5.080;2022-10-31T16:26:23;21.05;;;10.65;;
75073;SDS011;63652;51.526;5.080;2022-10-31T16:28:52;20.95;;;10.25;;
75073;SDS011;63652;51.526;5.080;2022-10-31T16:31:25;22.10;;;9.25;;
75073;SDS011;63652;51.526;5.080;2022-10-31T16:34:01;19.52;;;10.02;;
75073;SDS011;63652;51.526;5.080;2022-10-31T16:36:29;23.83;;;11.05;;
75073;SDS011;63652;51.526;5.080;2022-10-31T16:38:57;22.88;;;10.40;;
75073;SDS011;63652;51.526;5.080;2022-10-31T16:41:23;21.23;;;10.20;;
75073;SDS011;63652;51.526;5.080;2022-10-31T16:43:49;20.73;;;9.80;;
75073;SDS011;63652;51.526;5.080;2022-10-31T16:46:15;20.17;;;9.55;;
75073;SDS011;63652;51.526;5.080;2022-10-31T16:48:44;22.15;;;10.45;;
75073;SDS011;63652;51.526;5.080;2022-10-31T16:51:09;16.42;;;9.45;;
75073;SDS011;63652;51.526;5.080;2022-10-31T16:53:35;27.83;;;9.98;;
75073;SDS011;63652;51.526;5.080;2022-10-31T16:56:02;22.73;;;9.90;;
75073;SDS011;63652;51.526;5.080;2022-10-31T16:58:32;21.73;;;11.40;;
75073;SDS011;63652;51.526;5.080;2022-10-31T17:00:59;22.80;;;10.70;;
75073;SDS011;63652;51.526;5.080;2022-10-31T17:03:25;21.75;;;10.80;;
75073;SDS011;63652;51.526;5.080;2022-10-31T17:05:51;23.80;;;9.80;;
75073;SDS011;63652;51.526;5.080;2022-10-31T17:08:16;21.30;;;9.02;;
75073;SDS011;63652;51.526;5.080;2022-10-31T17:10:42;19.83;;;9.63;;
75073;SDS011;63652;51.526;5.080;2022-10-31T17:13:10;21.08;;;9.90;;
75073;SDS011;63652;51.526;5.080;2022-10-31T17:15:44;16.75;;;8.50;;
75073;SDS011;63652;51.526;5.080;2022-10-31T17:18:11;20.98;;;9.00;;
75073;SDS011;63652;51.526;5.080;2022-10-31T17:20:38;20.08;;;10.45;;
75073;SDS011;63652;51.526;5.080;2022-10-31T17:23:03;20.58;;;8.40;;
75073;SDS011;63652;51.526;5.080;2022-10-31T17:25:29;18.83;;;9.32;;